sensor_id;sensor_type;location;lat;lon;timestamp;P1;durP1;ratioP1;P2;durP2;ratioP2
31206;SDS011;17834;52.992;8.856;2023-08-06T00:00:05;6.32;;;3.33;;
31206;SDS011;17834;52.992;8.856;2023-08-06T00:02:31;7.13;;;3.50;;
31206;SDS011;17834;52.992;8.856;2023-08-06T00:04:56;6.40;;;3.58;;
31206;SDS011;17834;52.992;8.856;2023-08-06T00:07:22;5.78;;;3.08;;
31206;SDS011;17834;52.992;8.856;2023-08-06T00:09:47;6.30;;;2.88;;
31206;SDS011;17834;52.992;8.856;2023-08-06T00:12:14;5.95;;;3.45;;
31206;SDS011;17834;52.992;8.856;2023-08-06T00:14:40;5.43;;;3.20;;
31206;SDS011;17834;52.992;8.856;2023-08-06T00:17:05;6.53;;;3.33;;
31206;SDS011;17834;52.992;8.856;2023-08-06T00:19:31;6.13;;;3.63;;
31206;SDS011;17834;52.992;8.856;2023-08-06T00:21:57;6.72;;;3.00;;
31206;SDS011;17834;52.992;8.856;2023-08-06T00:24:23;5.07;;;2.88;;
31206;SDS011;17834;52.992;8.856;2023-08-06T00:26:48;6.30;;;2.90;;
31206;SDS011;17834;52.992;8.856;2023-08-06T00:29:14;6.00;;;3.40;;
31206;SDS011;17834;52.992;8.856;2023-08-06T00:31:39;5.82;;;3.15;;
31206;SDS011;17834;52.992;8.856;2023-08-06T00:34:05;5.25;;;2.88;;
31206;SDS011;17834;52.992;8.856;2023-08-06T00:36:31;4.53;;;2.70;;
31206;SDS011;17834;52.992;8.856;2023-08-06T00:38:56;6.68;;;3.50;;
31206;SDS011;17834;52.992;8.856;2023-08-06T00:41:22;5.50;;;3.10;;
31206;SDS011;17834;52.992;8.856;2023-08-06T00:43:47;5.50;;;2.95;;
31206;SDS011;17834;52.992;8.856;2023-08-06T00:46:13;6.47;;;3.38;;
31206;SDS011;17834;52.992;8.856;2023-08-06T00:48:39;5.43;;;2.90;;
31206;SDS011;17834;52.992;8.856;2023-08-06T00:51:05;5.03;;;2.88;;
31206;SDS011;17834;52.992;8.856;2023-08-06T00:53:31;6.00;;;3.55;;
31206;SDS011;17834;52.992;8.856;2023-08-06T00:55:57;4.93;;;2.88;;
31206;SDS011;17834;52.992;8.856;2023-08-06T00:58:23;7.13;;;3.92;;
31206;SDS011;17834;52.992;8.856;2023-08-06T01:00:49;9.38;;;4.18;;
31206;SDS011;17834;52.992;8.856;2023-08-06T01:03:14;5.45;;;3.22;;
31206;SDS011;17834;52.992;8.856;2023-08-06T01:05:40;5.38;;;2.97;;
31206;SDS011;17834;52.992;8.856;2023-08-06T01:08:12;5.85;;;3.15;;
31206;SDS011;17834;52.992;8.856;2023-08-06T01:13:32;8.25;;;3.38;;
31206;SDS011;17834;52.992;8.856;2023-08-06T01:16:06;8.85;;;3.58;;
31206;SDS011;17834;52.992;8.856;2023-08-06T01:18:34;6.15;;;3.30;;
31206;SDS011;17834;52.992;8.856;2023-08-06T01:21:00;7.38;;;3.53;;
31206;SDS011;17834;52.992;8.856;2023-08-06T01:23:25;7.47;;;3.60;;
31206;SDS011;17834;52.992;8.856;2023-08-06T01:31:03;7.95;;;3.38;;
31206;SDS011;17834;52.992;8.856;2023-08-06T01:33:32;9.25;;;4.45;;
31206;SDS011;17834;52.992;8.856;2023-08-06T01:36:01;7.55;;;3.95;;
31206;SDS011;17834;52.992;8.856;2023-08-06T01:38:27;8.05;;;3.83;;
31206;SDS011;17834;52.992;8.856;2023-08-06T01:40:53;5.68;;;3.50;;
31206;SDS011;17834;52.992;8.856;2023-08-06T01:43:18;7.32;;;3.20;;
31206;SDS011;17834;52.992;8.856;2023-08-06T01:45:44;6.97;;;3.30;;
31206;SDS011;17834;52.992;8.856;2023-08-06T01:48:10;6.60;;;3.72;;
31206;SDS011;17834;52.992;8.856;2023-08-06T01:50:35;8.68;;;3.67;;
31206;SDS011;17834;52.992;8.856;2023-08-06T01:53:01;5.75;;;3.55;;
31206;SDS011;17834;52.992;8.856;2023-08-06T01:55:26;5.85;;;3.63;;
31206;SDS011;17834;52.992;8.856;2023-08-06T01:57:53;6.93;;;3.63;;
31206;SDS011;17834;52.992;8.856;2023-08-06T02:00:19;7.57;;;4.28;;
31206;SDS011;17834;52.992;8.856;2023-08-06T02:02:44;6.95;;;3.90;;
31206;SDS011;17834;52.992;8.856;2023-08-06T02:05:10;7.80;;;4.28;;
31206;SDS011;17834;52.992;8.856;2023-08-06T02:07:35;7.68;;;4.00;;
31206;SDS011;17834;52.992;8.856;2023-08-06T02:10:01;6.10;;;3.83;;
31206;SDS011;17834;52.992;8.856;2023-08-06T02:12:26;7.00;;;3.90;;
31206;SDS011;17834;52.992;8.856;2023-08-06T02:14:52;7.05;;;3.97;;
31206;SDS011;17834;52.992;8.856;2023-08-06T02:17:18;8.02;;;3.65;;
31206;SDS011;17834;52.992;8.856;2023-08-06T02:19:43;7.05;;;4.00;;
31206;SDS011;17834;52.992;8.856;2023-08-06T02:22:09;8.13;;;4.00;;
31206;SDS011;17834;52.992;8.856;2023-08-06T02:24:34;7.35;;;3.90;;
31206;SDS011;17834;52.992;8.856;2023-08-06T02:27:00;6.32;;;3.63;;
31206;SDS011;17834;52.992;8.856;2023-08-06T02:29:26;6.35;;;3.28;;
31206;SDS011;17834;52.992;8.856;2023-08-06T02:31:51;8.60;;;4.07;;
31206;SDS011;17834;52.992;8.856;2023-08-06T02:34:17;7.50;;;3.90;;
31206;SDS011;17834;52.992;8.856;2023-08-06T02:36:43;9.10;;;4.35;;
31206;SDS011;17834;52.992;8.856;2023-08-06T02:39:08;6.80;;;3.78;;
31206;SDS011;17834;52.992;8.856;2023-08-06T02:41:34;6.30;;;3.65;;
31206;SDS011;17834;52.992;8.856;2023-08-06T02:43:59;6.57;;;3.50;;
31206;SDS011;17834;52.992;8.856;2023-08-06T02:46:25;5.63;;;3.53;;
31206;SDS011;17834;52.992;8.856;2023-08-06T02:48:51;5.65;;;3.55;;
31206;SDS011;17834;52.992;8.856;2023-08-06T02:51:16;7.38;;;4.40;;
31206;SDS011;17834;52.992;8.856;2023-08-06T02:53:42;7.78;;;4.22;;
31206;SDS011;17834;52.992;8.856;2023-08-06T02:56:07;8.48;;;4.57;;
31206;SDS011;17834;52.992;8.856;2023-08-06T02:58:33;8.27;;;5.20;;
31206;SDS011;17834;52.992;8.856;2023-08-06T03:01:07;9.57;;;4.68;;
31206;SDS011;17834;52.992;8.856;2023-08-06T03:03:33;9.23;;;4.40;;
31206;SDS011;17834;52.992;8.856;2023-08-06T03:05:59;9.57;;;5.60;;
31206;SDS011;17834;52.992;8.856;2023-08-06T03:08:25;10.30;;;5.20;;
31206;SDS011;17834;52.992;8.856;2023-08-06T03:10:50;10.98;;;5.18;;
31206;SDS011;17834;52.992;8.856;2023-08-06T03:13:17;8.60;;;4.63;;
31206;SDS011;17834;52.992;8.856;2023-08-06T03:15:43;11.25;;;5.70;;
31206;SDS011;17834;52.992;8.856;2023-08-06T03:18:16;8.30;;;5.18;;
31206;SDS011;17834;52.992;8.856;2023-08-06T03:20:41;13.70;;;5.80;;
31206;SDS011;17834;52.992;8.856;2023-08-06T03:23:07;10.00;;;5.82;;
31206;SDS011;17834;52.992;8.856;2023-08-06T03:25:34;13.70;;;6.13;;
31206;SDS011;17834;52.992;8.856;2023-08-06T03:28:01;11.10;;;6.40;;
31206;SDS011;17834;52.992;8.856;2023-08-06T03:30:27;10.55;;;5.97;;
31206;SDS011;17834;52.992;8.856;2023-08-06T03:32:52;13.20;;;6.40;;
31206;SDS011;17834;52.992;8.856;2023-08-06T03:35:18;12.45;;;6.38;;
31206;SDS011;17834;52.992;8.856;2023-08-06T03:37:43;16.05;;;7.50;;
31206;SDS011;17834;52.992;8.856;2023-08-06T03:40:09;14.20;;;7.05;;
31206;SDS011;17834;52.992;8.856;2023-08-06T03:42:35;12.55;;;6.65;;
31206;SDS011;17834;52.992;8.856;2023-08-06T03:45:00;16.73;;;7.82;;
31206;SDS011;17834;52.992;8.856;2023-08-06T03:47:26;18.58;;;6.90;;
31206;SDS011;17834;52.992;8.856;2023-08-06T03:49:52;13.23;;;7.00;;
31206;SDS011;17834;52.992;8.856;2023-08-06T03:52:17;14.90;;;6.53;;
31206;SDS011;17834;52.992;8.856;2023-08-06T03:54:43;14.77;;;7.18;;
31206;SDS011;17834;52.992;8.856;2023-08-06T03:57:08;11.27;;;5.32;;
31206;SDS011;17834;52.992;8.856;2023-08-06T03:59:34;10.95;;;6.18;;
31206;SDS011;17834;52.992;8.856;2023-08-06T04:02:00;13.63;;;6.85;;
31206;SDS011;17834;52.992;8.856;2023-08-06T04:04:25;13.60;;;6.60;;
31206;SDS011;17834;52.992;8.856;2023-08-06T04:06:51;11.27;;;6.00;;
31206;SDS011;17834;52.992;8.856;2023-08-06T04:09:16;13.23;;;6.50;;
31206;SDS011;17834;52.992;8.856;2023-08-06T04:11:42;15.88;;;7.45;;
31206;SDS011;17834;52.992;8.856;2023-08-06T04:14:07;15.40;;;7.28;;
31206;SDS011;17834;52.992;8.856;2023-08-06T04:16:33;14.60;;;7.40;;
31206;SDS011;17834;52.992;8.856;2023-08-06T04:18:58;15.73;;;7.10;;
31206;SDS011;17834;52.992;8.856;2023-08-06T04:21:24;15.15;;;6.78;;
31206;SDS011;17834;52.992;8.856;2023-08-06T04:23:49;19.13;;;7.30;;
31206;SDS011;17834;52.992;8.856;2023-08-06T04:26:15;12.13;;;6.47;;
31206;SDS011;17834;52.992;8.856;2023-08-06T04:28:40;13.30;;;7.07;;
31206;SDS011;17834;52.992;8.856;2023-08-06T04:31:06;12.57;;;6.15;;
31206;SDS011;17834;52.992;8.856;2023-08-06T04:33:32;15.65;;;6.18;;
31206;SDS011;17834;52.992;8.856;2023-08-06T04:35:57;14.80;;;6.82;;
31206;SDS011;17834;52.992;8.856;2023-08-06T04:38:24;11.07;;;6.38;;
31206;SDS011;17834;52.992;8.856;2023-08-06T04:40:52;11.55;;;6.35;;
31206;SDS011;17834;52.992;8.856;2023-08-06T04:43:18;13.80;;;7.70;;
31206;SDS011;17834;52.992;8.856;2023-08-06T04:45:48;12.98;;;6.40;;
31206;SDS011;17834;52.992;8.856;2023-08-06T04:48:14;13.80;;;7.28;;
31206;SDS011;17834;52.992;8.856;2023-08-06T04:50:44;13.52;;;6.65;;
31206;SDS011;17834;52.992;8.856;2023-08-06T04:53:09;11.80;;;6.22;;
31206;SDS011;17834;52.992;8.856;2023-08-06T04:55:35;16.55;;;6.97;;
31206;SDS011;17834;52.992;8.856;2023-08-06T04:58:00;11.70;;;5.95;;
31206;SDS011;17834;52.992;8.856;2023-08-06T05:00:26;11.85;;;6.88;;
31206;SDS011;17834;52.992;8.856;2023-08-06T05:02:51;13.40;;;5.95;;
31206;SDS011;17834;52.992;8.856;2023-08-06T05:05:17;11.43;;;5.70;;
31206;SDS011;17834;52.992;8.856;2023-08-06T05:07:42;11.10;;;6.22;;
31206;SDS011;17834;52.992;8.856;2023-08-06T05:10:08;11.25;;;5.57;;
31206;SDS011;17834;52.992;8.856;2023-08-06T05:12:34;11.73;;;5.90;;
31206;SDS011;17834;52.992;8.856;2023-08-06T05:14:59;11.07;;;6.00;;
31206;SDS011;17834;52.992;8.856;2023-08-06T05:17:25;11.60;;;5.90;;
31206;SDS011;17834;52.992;8.856;2023-08-06T05:19:50;12.05;;;6.50;;
31206;SDS011;17834;52.992;8.856;2023-08-06T05:22:16;12.48;;;6.25;;
31206;SDS011;17834;52.992;8.856;2023-08-06T05:24:41;12.93;;;7.57;;
31206;SDS011;17834;52.992;8.856;2023-08-06T05:27:07;13.38;;;6.70;;
31206;SDS011;17834;52.992;8.856;2023-08-06T05:29:32;11.55;;;7.25;;
31206;SDS011;17834;52.992;8.856;2023-08-06T05:31:58;12.57;;;6.50;;
31206;SDS011;17834;52.992;8.856;2023-08-06T05:34:23;11.25;;;6.65;;
31206;SDS011;17834;52.992;8.856;2023-08-06T05:36:49;14.30;;;7.32;;
31206;SDS011;17834;52.992;8.856;2023-08-06T05:39:15;12.57;;;6.22;;
31206;SDS011;17834;52.992;8.856;2023-08-06T05:41:40;12.45;;;6.80;;
31206;SDS011;17834;52.992;8.856;2023-08-06T05:44:06;10.65;;;6.07;;
31206;SDS011;17834;52.992;8.856;2023-08-06T05:46:31;12.68;;;6.75;;
31206;SDS011;17834;52.992;8.856;2023-08-06T05:48:57;12.32;;;6.72;;
31206;SDS011;17834;52.992;8.856;2023-08-06T05:51:22;13.27;;;6.40;;
31206;SDS011;17834;52.992;8.856;2023-08-06T05:53:48;12.20;;;6.82;;
31206;SDS011;17834;52.992;8.856;2023-08-06T05:56:15;11.43;;;6.72;;
31206;SDS011;17834;52.992;8.856;2023-08-06T05:58:41;10.98;;;6.45;;
31206;SDS011;17834;52.992;8.856;2023-08-06T06:01:06;10.73;;;6.15;;
31206;SDS011;17834;52.992;8.856;2023-08-06T06:03:32;11.95;;;6.97;;
31206;SDS011;17834;52.992;8.856;2023-08-06T06:05:57;11.05;;;6.45;;
31206;SDS011;17834;52.992;8.856;2023-08-06T06:08:25;11.38;;;6.53;;
31206;SDS011;17834;52.992;8.856;2023-08-06T06:10:51;9.52;;;4.97;;
31206;SDS011;17834;52.992;8.856;2023-08-06T06:13:16;9.50;;;5.82;;
31206;SDS011;17834;52.992;8.856;2023-08-06T06:15:42;10.98;;;5.65;;
31206;SDS011;17834;52.992;8.856;2023-08-06T06:18:08;7.78;;;4.70;;
31206;SDS011;17834;52.992;8.856;2023-08-06T06:20:33;8.48;;;4.90;;
31206;SDS011;17834;52.992;8.856;2023-08-06T06:22:59;6.82;;;4.35;;
31206;SDS011;17834;52.992;8.856;2023-08-06T06:25:24;7.53;;;4.22;;
31206;SDS011;17834;52.992;8.856;2023-08-06T06:27:50;8.88;;;5.75;;
31206;SDS011;17834;52.992;8.856;2023-08-06T06:30:15;6.50;;;4.25;;
31206;SDS011;17834;52.992;8.856;2023-08-06T06:32:41;6.43;;;4.47;;
31206;SDS011;17834;52.992;8.856;2023-08-06T06:35:06;8.15;;;4.38;;
31206;SDS011;17834;52.992;8.856;2023-08-06T06:37:32;7.80;;;5.50;;
31206;SDS011;17834;52.992;8.856;2023-08-06T06:39:58;7.55;;;3.92;;
31206;SDS011;17834;52.992;8.856;2023-08-06T06:42:23;7.90;;;5.30;;
31206;SDS011;17834;52.992;8.856;2023-08-06T06:44:49;6.70;;;4.70;;
31206;SDS011;17834;52.992;8.856;2023-08-06T06:47:14;6.10;;;4.20;;
31206;SDS011;17834;52.992;8.856;2023-08-06T06:49:40;5.97;;;3.70;;
31206;SDS011;17834;52.992;8.856;2023-08-06T06:52:05;6.90;;;3.83;;
31206;SDS011;17834;52.992;8.856;2023-08-06T06:54:31;4.82;;;3.05;;
31206;SDS011;17834;52.992;8.856;2023-08-06T06:56:57;6.80;;;3.78;;
31206;SDS011;17834;52.992;8.856;2023-08-06T06:59:22;5.50;;;3.35;;
31206;SDS011;17834;52.992;8.856;2023-08-06T07:01:48;5.10;;;3.25;;
31206;SDS011;17834;52.992;8.856;2023-08-06T07:04:13;6.10;;;3.65;;
31206;SDS011;17834;52.992;8.856;2023-08-06T07:06:39;4.60;;;2.97;;
31206;SDS011;17834;52.992;8.856;2023-08-06T07:09:04;5.97;;;3.45;;
31206;SDS011;17834;52.992;8.856;2023-08-06T07:11:30;6.35;;;3.60;;
31206;SDS011;17834;52.992;8.856;2023-08-06T07:13:56;6.70;;;3.45;;
31206;SDS011;17834;52.992;8.856;2023-08-06T07:16:23;5.10;;;3.45;;
31206;SDS011;17834;52.992;8.856;2023-08-06T07:18:50;5.30;;;3.55;;
31206;SDS011;17834;52.992;8.856;2023-08-06T07:21:17;5.50;;;3.20;;
31206;SDS011;17834;52.992;8.856;2023-08-06T07:23:43;3.88;;;2.50;;
31206;SDS011;17834;52.992;8.856;2023-08-06T07:26:08;7.40;;;3.58;;
31206;SDS011;17834;52.992;8.856;2023-08-06T07:28:34;5.32;;;3.25;;
31206;SDS011;17834;52.992;8.856;2023-08-06T07:30:59;4.43;;;2.72;;
31206;SDS011;17834;52.992;8.856;2023-08-06T07:33:25;4.57;;;3.13;;
31206;SDS011;17834;52.992;8.856;2023-08-06T07:35:51;4.20;;;2.85;;
31206;SDS011;17834;52.992;8.856;2023-08-06T07:38:16;3.40;;;2.33;;
31206;SDS011;17834;52.992;8.856;2023-08-06T07:40:42;4.38;;;3.17;;
31206;SDS011;17834;52.992;8.856;2023-08-06T07:43:07;5.20;;;2.95;;
31206;SDS011;17834;52.992;8.856;2023-08-06T07:45:33;6.05;;;2.42;;
31206;SDS011;17834;52.992;8.856;2023-08-06T07:48:00;5.05;;;2.65;;
31206;SDS011;17834;52.992;8.856;2023-08-06T07:50:26;4.43;;;2.63;;
31206;SDS011;17834;52.992;8.856;2023-08-06T07:52:51;6.00;;;2.95;;
31206;SDS011;17834;52.992;8.856;2023-08-06T07:55:17;3.63;;;2.67;;
31206;SDS011;17834;52.992;8.856;2023-08-06T07:57:42;4.35;;;2.85;;
31206;SDS011;17834;52.992;8.856;2023-08-06T08:00:08;4.22;;;3.00;;
31206;SDS011;17834;52.992;8.856;2023-08-06T08:02:34;4.30;;;2.92;;
31206;SDS011;17834;52.992;8.856;2023-08-06T08:05:00;3.75;;;2.38;;
31206;SDS011;17834;52.992;8.856;2023-08-06T08:07:25;4.10;;;2.50;;
31206;SDS011;17834;52.992;8.856;2023-08-06T08:09:53;6.45;;;2.78;;
31206;SDS011;17834;52.992;8.856;2023-08-06T08:12:19;3.88;;;2.63;;
31206;SDS011;17834;52.992;8.856;2023-08-06T08:14:45;4.22;;;2.40;;
31206;SDS011;17834;52.992;8.856;2023-08-06T08:17:10;5.93;;;2.92;;
31206;SDS011;17834;52.992;8.856;2023-08-06T08:19:36;5.57;;;3.50;;
31206;SDS011;17834;52.992;8.856;2023-08-06T08:22:02;4.10;;;2.92;;
31206;SDS011;17834;52.992;8.856;2023-08-06T08:24:28;5.78;;;2.95;;
31206;SDS011;17834;52.992;8.856;2023-08-06T08:26:55;4.40;;;2.78;;
31206;SDS011;17834;52.992;8.856;2023-08-06T08:29:21;5.15;;;3.22;;
31206;SDS011;17834;52.992;8.856;2023-08-06T08:31:47;3.60;;;2.28;;
31206;SDS011;17834;52.992;8.856;2023-08-06T08:34:16;4.22;;;2.95;;
31206;SDS011;17834;52.992;8.856;2023-08-06T08:36:42;5.72;;;2.83;;
31206;SDS011;17834;52.992;8.856;2023-08-06T08:39:08;4.95;;;2.80;;
31206;SDS011;17834;52.992;8.856;2023-08-06T08:41:34;5.20;;;2.78;;
31206;SDS011;17834;52.992;8.856;2023-08-06T08:44:01;4.35;;;2.70;;
31206;SDS011;17834;52.992;8.856;2023-08-06T08:46:27;6.45;;;2.92;;
31206;SDS011;17834;52.992;8.856;2023-08-06T08:48:55;5.68;;;2.65;;
31206;SDS011;17834;52.992;8.856;2023-08-06T08:51:23;5.05;;;2.70;;
31206;SDS011;17834;52.992;8.856;2023-08-06T08:53:50;5.53;;;2.80;;
31206;SDS011;17834;52.992;8.856;2023-08-06T08:56:21;5.47;;;3.08;;
31206;SDS011;17834;52.992;8.856;2023-08-06T08:58:47;5.35;;;2.75;;
31206;SDS011;17834;52.992;8.856;2023-08-06T09:01:13;4.88;;;2.42;;
31206;SDS011;17834;52.992;8.856;2023-08-06T09:03:40;4.22;;;2.35;;
31206;SDS011;17834;52.992;8.856;2023-08-06T09:06:06;4.03;;;2.70;;
31206;SDS011;17834;52.992;8.856;2023-08-06T09:08:34;4.28;;;2.83;;
31206;SDS011;17834;52.992;8.856;2023-08-06T09:11:03;5.43;;;3.03;;
31206;SDS011;17834;52.992;8.856;2023-08-06T09:13:30;3.92;;;2.63;;
31206;SDS011;17834;52.992;8.856;2023-08-06T09:15:55;5.20;;;3.13;;
31206;SDS011;17834;52.992;8.856;2023-08-06T09:18:27;4.70;;;2.80;;
31206;SDS011;17834;52.992;8.856;2023-08-06T09:20:54;4.63;;;2.60;;
31206;SDS011;17834;52.992;8.856;2023-08-06T09:23:20;7.28;;;3.20;;
31206;SDS011;17834;52.992;8.856;2023-08-06T09:25:53;4.35;;;2.85;;
31206;SDS011;17834;52.992;8.856;2023-08-06T09:28:18;4.22;;;2.58;;
31206;SDS011;17834;52.992;8.856;2023-08-06T09:30:44;4.57;;;2.90;;
31206;SDS011;17834;52.992;8.856;2023-08-06T09:33:14;4.72;;;2.50;;
31206;SDS011;17834;52.992;8.856;2023-08-06T09:35:45;5.65;;;2.72;;
31206;SDS011;17834;52.992;8.856;2023-08-06T09:38:11;4.35;;;2.88;;
31206;SDS011;17834;52.992;8.856;2023-08-06T09:40:37;5.38;;;3.10;;
31206;SDS011;17834;52.992;8.856;2023-08-06T09:43:04;8.25;;;2.60;;
31206;SDS011;17834;52.992;8.856;2023-08-06T09:45:31;4.63;;;2.20;;
31206;SDS011;17834;52.992;8.856;2023-08-06T09:47:58;5.45;;;3.22;;
31206;SDS011;17834;52.992;8.856;2023-08-06T09:50:28;4.93;;;2.70;;
31206;SDS011;17834;52.992;8.856;2023-08-06T09:52:58;5.72;;;2.50;;
31206;SDS011;17834;52.992;8.856;2023-08-06T09:55:25;4.22;;;2.60;;
31206;SDS011;17834;52.992;8.856;2023-08-06T09:57:51;2.90;;;1.92;;
31206;SDS011;17834;52.992;8.856;2023-08-06T10:00:18;3.60;;;2.50;;
31206;SDS011;17834;52.992;8.856;2023-08-06T10:02:43;4.45;;;2.20;;
31206;SDS011;17834;52.992;8.856;2023-08-06T10:05:10;4.97;;;2.00;;
31206;SDS011;17834;52.992;8.856;2023-08-06T10:07:36;4.10;;;2.40;;
31206;SDS011;17834;52.992;8.856;2023-08-06T10:10:04;3.85;;;1.90;;
31206;SDS011;17834;52.992;8.856;2023-08-06T10:12:34;3.90;;;2.13;;
31206;SDS011;17834;52.992;8.856;2023-08-06T10:15:06;3.47;;;1.95;;
31206;SDS011;17834;52.992;8.856;2023-08-06T10:17:35;5.05;;;2.00;;
31206;SDS011;17834;52.992;8.856;2023-08-06T10:20:04;2.75;;;1.77;;
31206;SDS011;17834;52.992;8.856;2023-08-06T10:22:32;4.18;;;2.25;;
31206;SDS011;17834;52.992;8.856;2023-08-06T10:24:58;4.63;;;1.73;;
31206;SDS011;17834;52.992;8.856;2023-08-06T10:27:35;2.50;;;1.70;;
31206;SDS011;17834;52.992;8.856;2023-08-06T10:32:54;2.63;;;1.73;;
31206;SDS011;17834;52.992;8.856;2023-08-06T10:35:27;3.20;;;1.80;;
31206;SDS011;17834;52.992;8.856;2023-08-06T10:38:04;2.22;;;1.33;;
31206;SDS011;17834;52.992;8.856;2023-08-06T10:40:35;2.58;;;1.40;;
31206;SDS011;17834;52.992;8.856;2023-08-06T10:43:02;3.28;;;1.80;;
31206;SDS011;17834;52.992;8.856;2023-08-06T10:45:28;3.95;;;1.58;;
31206;SDS011;17834;52.992;8.856;2023-08-06T10:47:55;3.90;;;1.58;;
31206;SDS011;17834;52.992;8.856;2023-08-06T10:50:22;4.82;;;1.90;;
31206;SDS011;17834;52.992;8.856;2023-08-06T10:52:48;2.80;;;1.75;;
31206;SDS011;17834;52.992;8.856;2023-08-06T10:55:14;3.58;;;1.55;;
31206;SDS011;17834;52.992;8.856;2023-08-06T10:57:51;3.80;;;1.23;;
31206;SDS011;17834;52.992;8.856;2023-08-06T11:00:17;2.90;;;1.60;;
31206;SDS011;17834;52.992;8.856;2023-08-06T11:02:43;4.47;;;1.95;;
31206;SDS011;17834;52.992;8.856;2023-08-06T11:05:11;3.00;;;1.65;;
31206;SDS011;17834;52.992;8.856;2023-08-06T11:07:37;2.53;;;1.45;;
31206;SDS011;17834;52.992;8.856;2023-08-06T11:10:04;2.20;;;1.35;;
31206;SDS011;17834;52.992;8.856;2023-08-06T11:12:31;3.80;;;1.50;;
31206;SDS011;17834;52.992;8.856;2023-08-06T11:14:58;4.60;;;1.55;;
31206;SDS011;17834;52.992;8.856;2023-08-06T11:17:24;1.95;;;1.33;;
31206;SDS011;17834;52.992;8.856;2023-08-06T11:19:50;3.80;;;1.67;;
31206;SDS011;17834;52.992;8.856;2023-08-06T11:22:17;2.20;;;1.30;;
31206;SDS011;17834;52.992;8.856;2023-08-06T11:24:43;2.33;;;1.33;;
31206;SDS011;17834;52.992;8.856;2023-08-06T11:27:15;2.88;;;1.60;;
31206;SDS011;17834;52.992;8.856;2023-08-06T11:29:42;2.35;;;1.65;;
31206;SDS011;17834;52.992;8.856;2023-08-06T11:32:08;3.33;;;1.70;;
31206;SDS011;17834;52.992;8.856;2023-08-06T11:34:34;4.18;;;1.40;;
31206;SDS011;17834;52.992;8.856;2023-08-06T11:37:02;2.25;;;1.40;;
31206;SDS011;17834;52.992;8.856;2023-08-06T11:39:29;2.60;;;1.30;;
31206;SDS011;17834;52.992;8.856;2023-08-06T11:41:55;2.40;;;1.58;;
31206;SDS011;17834;52.992;8.856;2023-08-06T11:44:21;2.10;;;1.25;;
31206;SDS011;17834;52.992;8.856;2023-08-06T11:46:54;2.85;;;1.65;;
31206;SDS011;17834;52.992;8.856;2023-08-06T11:49:36;2.58;;;1.10;;
31206;SDS011;17834;52.992;8.856;2023-08-06T11:52:10;5.10;;;1.50;;
31206;SDS011;17834;52.992;8.856;2023-08-06T11:55:03;3.00;;;1.70;;
31206;SDS011;17834;52.992;8.856;2023-08-06T11:57:35;3.00;;;1.60;;
31206;SDS011;17834;52.992;8.856;2023-08-06T12:00:04;3.22;;;1.30;;
31206;SDS011;17834;52.992;8.856;2023-08-06T12:02:32;4.15;;;1.70;;
31206;SDS011;17834;52.992;8.856;2023-08-06T12:05:03;2.03;;;1.27;;
31206;SDS011;17834;52.992;8.856;2023-08-06T12:07:30;2.92;;;1.50;;
31206;SDS011;17834;52.992;8.856;2023-08-06T12:09:57;3.75;;;1.20;;
31206;SDS011;17834;52.992;8.856;2023-08-06T12:12:23;3.03;;;1.52;;
31206;SDS011;17834;52.992;8.856;2023-08-06T12:14:49;2.45;;;1.38;;
31206;SDS011;17834;52.992;8.856;2023-08-06T12:17:15;2.92;;;1.40;;
31206;SDS011;17834;52.992;8.856;2023-08-06T12:19:41;2.35;;;1.17;;
31206;SDS011;17834;52.992;8.856;2023-08-06T12:22:06;2.75;;;1.60;;
31206;SDS011;17834;52.992;8.856;2023-08-06T12:24:32;2.80;;;1.50;;
31206;SDS011;17834;52.992;8.856;2023-08-06T12:26:57;2.95;;;1.20;;
31206;SDS011;17834;52.992;8.856;2023-08-06T12:29:23;3.50;;;1.60;;
31206;SDS011;17834;52.992;8.856;2023-08-06T12:31:50;3.08;;;1.50;;
31206;SDS011;17834;52.992;8.856;2023-08-06T12:34:15;3.78;;;1.88;;
31206;SDS011;17834;52.992;8.856;2023-08-06T12:36:41;4.03;;;1.80;;
31206;SDS011;17834;52.992;8.856;2023-08-06T12:39:06;3.22;;;1.30;;
31206;SDS011;17834;52.992;8.856;2023-08-06T12:41:32;3.10;;;1.55;;
31206;SDS011;17834;52.992;8.856;2023-08-06T12:43:57;2.13;;;1.25;;
31206;SDS011;17834;52.992;8.856;2023-08-06T12:46:23;2.92;;;1.20;;
31206;SDS011;17834;52.992;8.856;2023-08-06T12:48:48;2.40;;;1.15;;
31206;SDS011;17834;52.992;8.856;2023-08-06T12:51:14;4.10;;;1.17;;
31206;SDS011;17834;52.992;8.856;2023-08-06T12:53:39;2.97;;;1.30;;
31206;SDS011;17834;52.992;8.856;2023-08-06T12:56:05;2.22;;;1.20;;
31206;SDS011;17834;52.992;8.856;2023-08-06T12:58:30;2.08;;;1.27;;
31206;SDS011;17834;52.992;8.856;2023-08-06T13:00:56;2.35;;;1.33;;
31206;SDS011;17834;52.992;8.856;2023-08-06T13:03:22;4.25;;;1.45;;
31206;SDS011;17834;52.992;8.856;2023-08-06T13:05:47;2.90;;;1.48;;
31206;SDS011;17834;52.992;8.856;2023-08-06T13:08:13;3.92;;;1.45;;
31206;SDS011;17834;52.992;8.856;2023-08-06T13:10:38;2.30;;;1.15;;
31206;SDS011;17834;52.992;8.856;2023-08-06T13:13:04;2.47;;;1.45;;
31206;SDS011;17834;52.992;8.856;2023-08-06T13:15:30;3.90;;;1.23;;
31206;SDS011;17834;52.992;8.856;2023-08-06T13:17:55;2.17;;;1.15;;
31206;SDS011;17834;52.992;8.856;2023-08-06T13:20:21;2.22;;;1.10;;
31206;SDS011;17834;52.992;8.856;2023-08-06T13:22:47;1.50;;;0.82;;
31206;SDS011;17834;52.992;8.856;2023-08-06T13:25:15;1.70;;;1.10;;
31206;SDS011;17834;52.992;8.856;2023-08-06T13:27:42;2.83;;;1.60;;
31206;SDS011;17834;52.992;8.856;2023-08-06T13:30:09;2.88;;;1.40;;
31206;SDS011;17834;52.992;8.856;2023-08-06T13:32:35;2.13;;;1.38;;
31206;SDS011;17834;52.992;8.856;2023-08-06T13:35:02;2.45;;;1.55;;
31206;SDS011;17834;52.992;8.856;2023-08-06T13:37:30;2.80;;;1.30;;
31206;SDS011;17834;52.992;8.856;2023-08-06T13:39:56;4.35;;;1.63;;
31206;SDS011;17834;52.992;8.856;2023-08-06T13:42:21;2.47;;;1.50;;
31206;SDS011;17834;52.992;8.856;2023-08-06T13:44:47;3.97;;;1.27;;
31206;SDS011;17834;52.992;8.856;2023-08-06T13:47:12;2.30;;;1.50;;
31206;SDS011;17834;52.992;8.856;2023-08-06T13:49:38;2.47;;;1.48;;
31206;SDS011;17834;52.992;8.856;2023-08-06T13:52:04;2.38;;;1.17;;
31206;SDS011;17834;52.992;8.856;2023-08-06T13:54:29;2.42;;;1.20;;
31206;SDS011;17834;52.992;8.856;2023-08-06T13:56:55;2.28;;;1.38;;
31206;SDS011;17834;52.992;8.856;2023-08-06T13:59:20;3.17;;;1.38;;
31206;SDS011;17834;52.992;8.856;2023-08-06T14:01:48;2.40;;;1.15;;
31206;SDS011;17834;52.992;8.856;2023-08-06T14:04:14;2.85;;;1.63;;
31206;SDS011;17834;52.992;8.856;2023-08-06T14:06:39;2.80;;;1.60;;
31206;SDS011;17834;52.992;8.856;2023-08-06T14:09:05;2.40;;;1.60;;
31206;SDS011;17834;52.992;8.856;2023-08-06T14:11:30;2.92;;;1.58;;
31206;SDS011;17834;52.992;8.856;2023-08-06T14:13:56;2.45;;;1.48;;
31206;SDS011;17834;52.992;8.856;2023-08-06T14:16:21;2.47;;;1.50;;
31206;SDS011;17834;52.992;8.856;2023-08-06T14:18:47;3.00;;;1.52;;
31206;SDS011;17834;52.992;8.856;2023-08-06T14:21:13;2.35;;;1.45;;
31206;SDS011;17834;52.992;8.856;2023-08-06T14:23:39;2.80;;;1.38;;
31206;SDS011;17834;52.992;8.856;2023-08-06T14:26:06;2.28;;;1.42;;
31206;SDS011;17834;52.992;8.856;2023-08-06T14:28:32;2.47;;;1.58;;
31206;SDS011;17834;52.992;8.856;2023-08-06T14:30:58;4.38;;;1.92;;
31206;SDS011;17834;52.992;8.856;2023-08-06T14:33:23;2.35;;;1.50;;
31206;SDS011;17834;52.992;8.856;2023-08-06T14:35:49;2.70;;;1.40;;
31206;SDS011;17834;52.992;8.856;2023-08-06T14:38:15;2.80;;;1.67;;
31206;SDS011;17834;52.992;8.856;2023-08-06T14:40:40;2.70;;;1.58;;
31206;SDS011;17834;52.992;8.856;2023-08-06T14:43:06;3.55;;;1.63;;
31206;SDS011;17834;52.992;8.856;2023-08-06T14:45:31;3.95;;;1.63;;
31206;SDS011;17834;52.992;8.856;2023-08-06T14:47:57;2.60;;;1.35;;
31206;SDS011;17834;52.992;8.856;2023-08-06T14:50:23;3.70;;;1.52;;